AirNav   Duncan Aviation - Near you to keep you flying
 
 1232 users online  

76V Thomas Memorial Airport
Glendo, Wyoming, USA

GOING TO GLENDO?


FAA INFORMATION EFFECTIVE 19 MAY 2022

Location

FAA Identifier: 76V
Lat/Long: 42-31-12.1000N 105-01-12.1000W
42-31.201667N 105-01.201667W
42.5200278,-105.0200278
(estimated)
Elevation: 4666 ft. / 1422 m (estimated)
Variation: 12E (1985)
From city: 1 mile N of GLENDO, WY
Time zone: UTC -6 (UTC -7 during Standard Time)
Zip code: 82213

Airport Operations

Airport use: Open to the public
Activation date: 10/1960
Control tower: no
ARTCC: DENVER CENTER
FSS: CASPER FLIGHT SERVICE STATION
NOTAMs facility: CPR (NOTAM-D service available)
Attendance: UNATNDD
Wind indicator: yes
Segmented circle: no

Airport Communications

CTAF: 122.9

Nearby radio navigation aids

VOR radial/distance  VOR name  Freq  Var
IIPr124/13.1HIPSHER VOR/DME115.7512E

 
NDB name  Hdg/Dist  Freq  Var  ID
CAMP GUERNSEY310/21.628011EGYZ --. -.-- --..

Airport Services

Parking: tiedowns
Airframe service: NONE
Powerplant service: NONE
Bottled oxygen: NONE
Bulk oxygen: NONE

Runway Information

Runway 16/34

Dimensions: 4397 x 70 ft. / 1340 x 21 m
Surface: turf/dirt, in fair condition
FIRST 500 FT RWY 34 END VERY ROUGH.
MOWED NATURAL GRASS.
RUNWAY 16  RUNWAY 34
Latitude: 42-31.559723N42-30.844157N
Longitude: 105-01.275698W105-01.126068W
Elevation: 4665.0 ft.4662.0 ft.
Traffic pattern: leftleft
Runway heading: 159 magnetic, 171 true339 magnetic, 351 true
Obstructions: 45 ft. tree, 900 ft. from runway, 75 ft. right of centerline, 20:1 slope to clear24 ft. road, 186 ft. from runway, 7:1 slope to clear
RWY 34 +5' FENCE 66' FROM THLD 13:1 APCH RATIO. RWY 34 244' HILL 4824' FROM THLD 19:1 APCH RATIO.

Airport Ownership and Management from official FAA records

Ownership: Publicly-owned
Owner: TOWN OF GLENDO
PO BOX 396
GLENDO, WY 82213
Phone 307-735-4242
Manager: BRENDA HAGEN
PO BOX 396
GLENDO, WY 82213
Phone (307) 331-5005

Airport Operational Statistics

Aircraft based on the field: 1
Single engine airplanes: 1
    
Aircraft operations: avg 45/month *
58% transient general aviation
42% local general aviation
* for 12-month period ending 31 May 2020

Additional Remarks

RY 16/34 MUDDY; SLICK & SOFT WHEN WET; OCNL GOPHER HOLES.
UNRESTRICTED VEHICLE ACCESS.
OCNL ANTELOPE ON RWY.
CTCT TOWN HALL 307-735-4242 OR ARPT MANAGER 307-331-5005 PRIOR TO USE FOR SFC CONDITION.
FOR CD CTC DENVER ARTCC AT 303-651-4257.

Instrument Procedures

There are no published instrument procedures at 76V.

Some nearby airports with instrument procedures:

KGUR - Camp Guernsey Airport (20 nm SE)
KDGW - Converse County Airport (23 nm NW)
KEAN - Phifer Airfield (28 nm S)
KTOR - Torrington Municipal Airport (47 nm SE)
KCPR - Casper/Natrona County International Airport (68 nm W)
 
Loc | Ops | Rwys | IFR | FBO | Links
Com | Nav | Svcs | Stats | Notes
Area around 76V (Thomas Memorial Airport)
 
Road maps at: MapQuest Bing Google
 
Aerial photo
No photo
 
Sectional chart

 
Airport distance calculator
Flying to Thomas Memorial Airport? Find the distance to fly.

From to 76V

Sunrise and sunset
Times for 21-May-2022
 Local
(UTC-6)
 Zulu
(UTC)
Morning civil twilight05:0111:01
Sunrise05:3311:33
Sunset20:2002:20
Evening civil twilight20:5302:53

Current date and time
Zulu (UTC)  21-May-2022 15:28:49
Local (UTC-6)  21-May-2022 09:28:49
 
METAR
KGUR 
20nm SE 
211458Z AUTO 31006KT 10SM BKN075 05/M01 A3023 RMK AO2 SLP273 60000 T00491009 51011
KDGW 
23nm NW 
211453Z AUTO VRB03KT 10SM BKN048 OVC080 03/M04 A3024 RMK AO2 SLP256 T00331039 51013
KEAN 
28nm S 
211510Z AUTO 04003KT 10SM BKN070 05/M02 A3024 RMK AO2 T00511021
TAF
KGUR 
20nm SE 
210622Z 2106/2211 VRB06KT 9999 FEW035 QNH3011INS TX10/2200Z TNM01/2112Z LAST NO AMDS AFT 2106 NEXT 2305
NOTAMs
Click for the latest NOTAMs
NOTAMs are issued by the DoD/FAA and will open in a separate window not controlled by AirNav.

 

 
 

Would you like to see your business listed on this page?

 If your business provides an interesting product or service to pilots, flight crews, aircraft, or users of the Thomas Memorial Airport, you should consider listing it here.  To start the listing process, click on the button below
 
Add a business
 

Other Pages about Thomas Memorial Airport

Update a link
 
Copyright © AirNav, LLC. All rights reserved. Privacy Policy  Contact